sensor_id;sensor_type;location;lat;lon;timestamp;P1;durP1;ratioP1;P2;durP2;ratioP2
74245;SDS011;62601;51.044;13.788;2023-02-12T00:00:40;39.38;;;23.67;;
74245;SDS011;62601;51.044;13.788;2023-02-12T00:03:01;33.80;;;20.77;;
74245;SDS011;62601;51.044;13.788;2023-02-12T00:05:22;39.53;;;22.70;;
74245;SDS011;62601;51.044;13.788;2023-02-12T00:07:44;39.08;;;22.02;;
74245;SDS011;62601;51.044;13.788;2023-02-12T00:10:06;34.92;;;21.60;;
74245;SDS011;62601;51.044;13.788;2023-02-12T00:12:27;36.85;;;22.73;;
74245;SDS011;62601;51.044;13.788;2023-02-12T00:14:52;40.15;;;22.85;;
74245;SDS011;62601;51.044;13.788;2023-02-12T00:17:13;36.92;;;22.40;;
74245;SDS011;62601;51.044;13.788;2023-02-12T00:19:34;40.83;;;22.98;;
74245;SDS011;62601;51.044;13.788;2023-02-12T00:21:56;40.47;;;24.30;;
74245;SDS011;62601;51.044;13.788;2023-02-12T00:24:17;37.63;;;21.92;;
74245;SDS011;62601;51.044;13.788;2023-02-12T00:26:39;38.45;;;22.80;;
74245;SDS011;62601;51.044;13.788;2023-02-12T00:29:00;41.60;;;23.35;;
74245;SDS011;62601;51.044;13.788;2023-02-12T00:31:26;36.15;;;22.75;;
74245;SDS011;62601;51.044;13.788;2023-02-12T00:33:48;43.30;;;24.58;;
74245;SDS011;62601;51.044;13.788;2023-02-12T00:36:09;41.08;;;23.60;;
74245;SDS011;62601;51.044;13.788;2023-02-12T00:38:33;40.15;;;24.00;;
74245;SDS011;62601;51.044;13.788;2023-02-12T00:40:55;40.63;;;24.30;;
74245;SDS011;62601;51.044;13.788;2023-02-12T00:43:16;42.53;;;24.65;;
74245;SDS011;62601;51.044;13.788;2023-02-12T00:45:36;41.33;;;23.02;;
74245;SDS011;62601;51.044;13.788;2023-02-12T00:47:59;35.67;;;22.25;;
74245;SDS011;62601;51.044;13.788;2023-02-12T00:50:21;44.65;;;23.80;;
74245;SDS011;62601;51.044;13.788;2023-02-12T00:52:42;42.35;;;24.65;;
74245;SDS011;62601;51.044;13.788;2023-02-12T00:55:02;42.50;;;23.60;;
74245;SDS011;62601;51.044;13.788;2023-02-12T00:57:22;45.40;;;24.20;;
74245;SDS011;62601;51.044;13.788;2023-02-12T00:59:46;41.50;;;23.65;;
74245;SDS011;62601;51.044;13.788;2023-02-12T01:02:06;38.67;;;23.55;;
74245;SDS011;62601;51.044;13.788;2023-02-12T01:04:27;49.00;;;26.38;;
74245;SDS011;62601;51.044;13.788;2023-02-12T01:06:53;42.17;;;23.80;;
74245;SDS011;62601;51.044;13.788;2023-02-12T01:09:14;41.20;;;24.58;;
74245;SDS011;62601;51.044;13.788;2023-02-12T01:11:36;42.03;;;24.67;;
74245;SDS011;62601;51.044;13.788;2023-02-12T01:13:57;43.75;;;25.10;;
74245;SDS011;62601;51.044;13.788;2023-02-12T01:16:21;44.03;;;23.27;;
74245;SDS011;62601;51.044;13.788;2023-02-12T01:18:43;40.20;;;23.00;;
74245;SDS011;62601;51.044;13.788;2023-02-12T01:21:15;46.17;;;24.85;;
74245;SDS011;62601;51.044;13.788;2023-02-12T01:23:35;43.55;;;23.10;;
74245;SDS011;62601;51.044;13.788;2023-02-12T01:25:57;40.25;;;23.70;;
74245;SDS011;62601;51.044;13.788;2023-02-12T01:28:18;39.70;;;22.40;;
74245;SDS011;62601;51.044;13.788;2023-02-12T01:30:38;40.15;;;23.83;;
74245;SDS011;62601;51.044;13.788;2023-02-12T01:32:59;42.00;;;24.25;;
74245;SDS011;62601;51.044;13.788;2023-02-12T01:35:21;39.20;;;22.77;;
74245;SDS011;62601;51.044;13.788;2023-02-12T01:37:42;40.08;;;22.48;;
74245;SDS011;62601;51.044;13.788;2023-02-12T01:40:03;43.78;;;23.13;;
74245;SDS011;62601;51.044;13.788;2023-02-12T01:42:25;42.78;;;23.90;;
74245;SDS011;62601;51.044;13.788;2023-02-12T01:45:37;36.90;;;22.17;;
74245;SDS011;62601;51.044;13.788;2023-02-12T01:47:38;39.95;;;23.90;;
74245;SDS011;62601;51.044;13.788;2023-02-12T01:50:10;42.33;;;23.80;;
74245;SDS011;62601;51.044;13.788;2023-02-12T01:52:32;43.63;;;23.75;;
74245;SDS011;62601;51.044;13.788;2023-02-12T01:54:55;38.53;;;23.35;;
74245;SDS011;62601;51.044;13.788;2023-02-12T01:57:19;43.00;;;23.38;;
74245;SDS011;62601;51.044;13.788;2023-02-12T01:59:42;39.03;;;22.85;;
74245;SDS011;62601;51.044;13.788;2023-02-12T02:02:05;41.15;;;23.13;;
74245;SDS011;62601;51.044;13.788;2023-02-12T02:04:28;38.17;;;21.95;;
74245;SDS011;62601;51.044;13.788;2023-02-12T02:06:51;43.25;;;23.52;;
74245;SDS011;62601;51.044;13.788;2023-02-12T02:09:16;43.60;;;23.20;;
74245;SDS011;62601;51.044;13.788;2023-02-12T02:11:38;41.55;;;22.13;;
74245;SDS011;62601;51.044;13.788;2023-02-12T02:13:59;39.35;;;22.55;;
74245;SDS011;62601;51.044;13.788;2023-02-12T02:16:21;37.05;;;21.40;;
74245;SDS011;62601;51.044;13.788;2023-02-12T02:19:32;41.97;;;22.73;;
74245;SDS011;62601;51.044;13.788;2023-02-12T02:21:37;40.13;;;22.65;;
74245;SDS011;62601;51.044;13.788;2023-02-12T02:29:36;41.80;;;23.98;;
74245;SDS011;62601;51.044;13.788;2023-02-12T02:34:47;40.20;;;22.95;;
74245;SDS011;62601;51.044;13.788;2023-02-12T02:39:50;46.97;;;24.67;;
74245;SDS011;62601;51.044;13.788;2023-02-12T02:44:53;42.30;;;23.17;;
74245;SDS011;62601;51.044;13.788;2023-02-12T02:47:14;40.47;;;23.50;;
74245;SDS011;62601;51.044;13.788;2023-02-12T02:49:46;45.47;;;22.67;;
74245;SDS011;62601;51.044;13.788;2023-02-12T02:52:11;49.70;;;24.10;;
74245;SDS011;62601;51.044;13.788;2023-02-12T02:54:44;44.45;;;23.13;;
74245;SDS011;62601;51.044;13.788;2023-02-12T02:57:18;43.05;;;23.75;;
74245;SDS011;62601;51.044;13.788;2023-02-12T02:59:42;46.78;;;25.80;;
74245;SDS011;62601;51.044;13.788;2023-02-12T03:02:06;43.70;;;22.98;;
74245;SDS011;62601;51.044;13.788;2023-02-12T03:04:36;47.70;;;25.50;;
74245;SDS011;62601;51.044;13.788;2023-02-12T03:07:16;45.78;;;25.38;;
74245;SDS011;62601;51.044;13.788;2023-02-12T03:09:42;48.25;;;25.23;;
74245;SDS011;62601;51.044;13.788;2023-02-12T03:12:11;42.47;;;23.63;;
74245;SDS011;62601;51.044;13.788;2023-02-12T03:14:38;49.97;;;27.45;;
74245;SDS011;62601;51.044;13.788;2023-02-12T03:17:15;49.83;;;25.10;;
74245;SDS011;62601;51.044;13.788;2023-02-12T03:19:41;45.80;;;25.45;;
74245;SDS011;62601;51.044;13.788;2023-02-12T03:22:09;38.65;;;23.35;;
74245;SDS011;62601;51.044;13.788;2023-02-12T03:24:43;46.90;;;25.25;;
74245;SDS011;62601;51.044;13.788;2023-02-12T03:27:18;44.10;;;24.75;;
74245;SDS011;62601;51.044;13.788;2023-02-12T03:29:39;44.60;;;23.45;;
74245;SDS011;62601;51.044;13.788;2023-02-12T03:34:45;43.47;;;25.13;;
74245;SDS011;62601;51.044;13.788;2023-02-12T03:39:48;40.05;;;22.13;;
74245;SDS011;62601;51.044;13.788;2023-02-12T03:44:57;37.45;;;21.58;;
74245;SDS011;62601;51.044;13.788;2023-02-12T03:47:38;43.05;;;24.30;;
74245;SDS011;62601;51.044;13.788;2023-02-12T03:50:11;41.75;;;23.52;;
74245;SDS011;62601;51.044;13.788;2023-02-12T03:52:42;44.70;;;23.50;;
74245;SDS011;62601;51.044;13.788;2023-02-12T03:55:05;43.38;;;24.30;;
74245;SDS011;62601;51.044;13.788;2023-02-12T03:57:29;42.17;;;24.00;;
74245;SDS011;62601;51.044;13.788;2023-02-12T03:59:50;49.10;;;24.75;;
74245;SDS011;62601;51.044;13.788;2023-02-12T04:02:10;46.65;;;24.00;;
74245;SDS011;62601;51.044;13.788;2023-02-12T04:04:31;44.85;;;25.30;;
74245;SDS011;62601;51.044;13.788;2023-02-12T04:06:52;46.65;;;24.05;;
74245;SDS011;62601;51.044;13.788;2023-02-12T04:09:14;49.83;;;25.02;;
74245;SDS011;62601;51.044;13.788;2023-02-12T04:11:46;46.88;;;25.17;;
74245;SDS011;62601;51.044;13.788;2023-02-12T04:14:17;48.88;;;26.02;;
74245;SDS011;62601;51.044;13.788;2023-02-12T04:19:25;46.83;;;24.77;;
74245;SDS011;62601;51.044;13.788;2023-02-12T04:24:37;51.85;;;26.67;;
74245;SDS011;62601;51.044;13.788;2023-02-12T04:27:11;50.50;;;25.50;;
74245;SDS011;62601;51.044;13.788;2023-02-12T04:29:41;50.65;;;26.27;;
74245;SDS011;62601;51.044;13.788;2023-02-12T04:34:54;53.97;;;25.50;;
74245;SDS011;62601;51.044;13.788;2023-02-12T04:37:20;52.88;;;27.83;;
74245;SDS011;62601;51.044;13.788;2023-02-12T04:39:42;52.42;;;26.33;;
74245;SDS011;62601;51.044;13.788;2023-02-12T04:42:03;49.40;;;26.80;;
74245;SDS011;62601;51.044;13.788;2023-02-12T04:44:25;51.70;;;26.52;;
74245;SDS011;62601;51.044;13.788;2023-02-12T04:46:47;52.08;;;26.25;;
74245;SDS011;62601;51.044;13.788;2023-02-12T04:49:07;52.88;;;27.00;;
74245;SDS011;62601;51.044;13.788;2023-02-12T04:51:32;51.50;;;26.67;;
74245;SDS011;62601;51.044;13.788;2023-02-12T04:53:53;53.22;;;25.63;;
74245;SDS011;62601;51.044;13.788;2023-02-12T04:56:15;53.60;;;27.38;;
74245;SDS011;62601;51.044;13.788;2023-02-12T04:58:36;51.55;;;27.77;;
74245;SDS011;62601;51.044;13.788;2023-02-12T05:00:58;48.33;;;25.05;;
74245;SDS011;62601;51.044;13.788;2023-02-12T05:03:19;48.65;;;25.38;;
74245;SDS011;62601;51.044;13.788;2023-02-12T05:05:41;46.60;;;25.60;;
74245;SDS011;62601;51.044;13.788;2023-02-12T05:08:01;55.95;;;28.15;;
74245;SDS011;62601;51.044;13.788;2023-02-12T05:10:22;50.80;;;25.48;;
74245;SDS011;62601;51.044;13.788;2023-02-12T05:12:44;52.90;;;27.17;;
74245;SDS011;62601;51.044;13.788;2023-02-12T05:15:04;55.00;;;27.13;;
74245;SDS011;62601;51.044;13.788;2023-02-12T05:17:25;55.20;;;27.88;;
74245;SDS011;62601;51.044;13.788;2023-02-12T05:19:47;52.53;;;26.48;;
74245;SDS011;62601;51.044;13.788;2023-02-12T05:22:07;56.90;;;26.48;;
74245;SDS011;62601;51.044;13.788;2023-02-12T05:24:27;54.00;;;25.65;;
74245;SDS011;62601;51.044;13.788;2023-02-12T05:26:47;50.63;;;27.23;;
74245;SDS011;62601;51.044;13.788;2023-02-12T05:29:09;50.28;;;26.35;;
74245;SDS011;62601;51.044;13.788;2023-02-12T05:31:30;54.30;;;26.83;;
74245;SDS011;62601;51.044;13.788;2023-02-12T05:33:51;53.00;;;26.70;;
74245;SDS011;62601;51.044;13.788;2023-02-12T05:36:14;56.42;;;27.40;;
74245;SDS011;62601;51.044;13.788;2023-02-12T05:38:35;64.80;;;31.80;;
74245;SDS011;62601;51.044;13.788;2023-02-12T05:41:00;49.05;;;26.77;;
74245;SDS011;62601;51.044;13.788;2023-02-12T05:43:21;55.83;;;26.00;;
74245;SDS011;62601;51.044;13.788;2023-02-12T05:45:43;53.72;;;25.92;;
74245;SDS011;62601;51.044;13.788;2023-02-12T05:48:03;50.65;;;26.83;;
74245;SDS011;62601;51.044;13.788;2023-02-12T05:50:24;53.92;;;26.25;;
74245;SDS011;62601;51.044;13.788;2023-02-12T05:52:48;55.55;;;28.83;;
74245;SDS011;62601;51.044;13.788;2023-02-12T05:55:10;58.03;;;28.52;;
74245;SDS011;62601;51.044;13.788;2023-02-12T05:57:31;55.30;;;27.05;;
74245;SDS011;62601;51.044;13.788;2023-02-12T05:59:53;49.28;;;25.45;;
74245;SDS011;62601;51.044;13.788;2023-02-12T06:02:14;51.50;;;26.15;;
74245;SDS011;62601;51.044;13.788;2023-02-12T06:04:35;51.97;;;26.00;;
74245;SDS011;62601;51.044;13.788;2023-02-12T06:06:58;52.42;;;24.98;;
74245;SDS011;62601;51.044;13.788;2023-02-12T06:09:20;52.47;;;25.10;;
74245;SDS011;62601;51.044;13.788;2023-02-12T06:11:42;45.22;;;24.38;;
74245;SDS011;62601;51.044;13.788;2023-02-12T06:14:04;47.30;;;24.80;;
74245;SDS011;62601;51.044;13.788;2023-02-12T06:16:26;45.92;;;24.10;;
74245;SDS011;62601;51.044;13.788;2023-02-12T06:18:48;46.45;;;24.58;;
74245;SDS011;62601;51.044;13.788;2023-02-12T06:21:10;48.42;;;25.33;;
74245;SDS011;62601;51.044;13.788;2023-02-12T06:23:31;47.58;;;23.92;;
74245;SDS011;62601;51.044;13.788;2023-02-12T06:25:54;46.10;;;22.92;;
74245;SDS011;62601;51.044;13.788;2023-02-12T06:28:16;47.90;;;25.63;;
74245;SDS011;62601;51.044;13.788;2023-02-12T06:30:36;52.70;;;25.00;;
74245;SDS011;62601;51.044;13.788;2023-02-12T06:32:57;47.30;;;23.42;;
74245;SDS011;62601;51.044;13.788;2023-02-12T06:35:18;46.35;;;22.95;;
74245;SDS011;62601;51.044;13.788;2023-02-12T06:37:40;47.40;;;24.65;;
74245;SDS011;62601;51.044;13.788;2023-02-12T06:40:01;55.20;;;29.75;;
74245;SDS011;62601;51.044;13.788;2023-02-12T06:42:22;42.88;;;25.35;;
74245;SDS011;62601;51.044;13.788;2023-02-12T06:44:44;44.92;;;24.05;;
74245;SDS011;62601;51.044;13.788;2023-02-12T06:47:04;44.58;;;24.63;;
74245;SDS011;62601;51.044;13.788;2023-02-12T06:49:26;50.45;;;24.98;;
74245;SDS011;62601;51.044;13.788;2023-02-12T06:51:48;45.28;;;24.42;;
74245;SDS011;62601;51.044;13.788;2023-02-12T06:54:13;51.65;;;26.02;;
74245;SDS011;62601;51.044;13.788;2023-02-12T06:56:34;48.13;;;26.23;;
74245;SDS011;62601;51.044;13.788;2023-02-12T06:58:57;45.22;;;25.58;;
74245;SDS011;62601;51.044;13.788;2023-02-12T07:01:20;47.92;;;23.75;;
74245;SDS011;62601;51.044;13.788;2023-02-12T07:03:43;42.22;;;20.83;;
74245;SDS011;62601;51.044;13.788;2023-02-12T07:06:04;42.55;;;21.63;;
74245;SDS011;62601;51.044;13.788;2023-02-12T07:08:29;38.38;;;20.60;;
74245;SDS011;62601;51.044;13.788;2023-02-12T07:10:50;36.88;;;21.10;;
74245;SDS011;62601;51.044;13.788;2023-02-12T07:13:12;39.40;;;20.42;;
74245;SDS011;62601;51.044;13.788;2023-02-12T07:15:37;34.92;;;19.70;;
74245;SDS011;62601;51.044;13.788;2023-02-12T07:17:58;35.10;;;21.17;;
74245;SDS011;62601;51.044;13.788;2023-02-12T07:20:23;31.33;;;18.15;;
74245;SDS011;62601;51.044;13.788;2023-02-12T07:22:44;35.40;;;19.48;;
74245;SDS011;62601;51.044;13.788;2023-02-12T07:25:06;34.28;;;19.63;;
74245;SDS011;62601;51.044;13.788;2023-02-12T07:27:27;32.60;;;18.30;;
74245;SDS011;62601;51.044;13.788;2023-02-12T07:29:48;37.15;;;20.27;;
74245;SDS011;62601;51.044;13.788;2023-02-12T07:32:10;34.50;;;19.60;;
74245;SDS011;62601;51.044;13.788;2023-02-12T07:34:30;33.13;;;18.77;;
74245;SDS011;62601;51.044;13.788;2023-02-12T07:36:51;37.55;;;19.92;;
74245;SDS011;62601;51.044;13.788;2023-02-12T07:39:13;31.92;;;18.75;;
74245;SDS011;62601;51.044;13.788;2023-02-12T07:41:34;32.97;;;19.15;;
74245;SDS011;62601;51.044;13.788;2023-02-12T07:44:00;37.03;;;19.00;;
74245;SDS011;62601;51.044;13.788;2023-02-12T07:46:23;48.63;;;26.17;;
74245;SDS011;62601;51.044;13.788;2023-02-12T07:48:45;45.72;;;25.42;;
74245;SDS011;62601;51.044;13.788;2023-02-12T07:51:08;37.30;;;21.38;;
74245;SDS011;62601;51.044;13.788;2023-02-12T07:53:35;34.58;;;19.70;;
74245;SDS011;62601;51.044;13.788;2023-02-12T07:56:07;35.33;;;19.98;;
74245;SDS011;62601;51.044;13.788;2023-02-12T07:58:28;34.10;;;19.55;;
74245;SDS011;62601;51.044;13.788;2023-02-12T08:00:50;37.80;;;20.30;;
74245;SDS011;62601;51.044;13.788;2023-02-12T08:03:11;35.63;;;19.90;;
74245;SDS011;62601;51.044;13.788;2023-02-12T08:05:32;39.00;;;20.27;;
74245;SDS011;62601;51.044;13.788;2023-02-12T08:07:54;37.00;;;19.65;;
74245;SDS011;62601;51.044;13.788;2023-02-12T08:10:16;33.78;;;18.35;;
74245;SDS011;62601;51.044;13.788;2023-02-12T08:12:37;32.75;;;19.50;;
74245;SDS011;62601;51.044;13.788;2023-02-12T08:14:59;32.85;;;19.17;;
74245;SDS011;62601;51.044;13.788;2023-02-12T08:17:20;32.92;;;18.30;;
74245;SDS011;62601;51.044;13.788;2023-02-12T08:19:42;30.88;;;18.75;;
74245;SDS011;62601;51.044;13.788;2023-02-12T08:22:03;35.00;;;20.40;;
74245;SDS011;62601;51.044;13.788;2023-02-12T08:24:24;33.53;;;18.60;;
74245;SDS011;62601;51.044;13.788;2023-02-12T08:26:46;35.38;;;20.60;;
74245;SDS011;62601;51.044;13.788;2023-02-12T08:29:11;33.22;;;17.98;;
74245;SDS011;62601;51.044;13.788;2023-02-12T08:31:34;32.05;;;18.20;;
74245;SDS011;62601;51.044;13.788;2023-02-12T08:34:05;33.17;;;18.98;;
74245;SDS011;62601;51.044;13.788;2023-02-12T08:36:44;29.98;;;18.98;;
74245;SDS011;62601;51.044;13.788;2023-02-12T08:39:08;35.33;;;19.85;;
74245;SDS011;62601;51.044;13.788;2023-02-12T08:41:30;38.70;;;20.75;;
74245;SDS011;62601;51.044;13.788;2023-02-12T08:43:54;31.08;;;18.98;;
74245;SDS011;62601;51.044;13.788;2023-02-12T08:46:17;34.58;;;19.98;;
74245;SDS011;62601;51.044;13.788;2023-02-12T08:48:40;41.28;;;20.20;;
74245;SDS011;62601;51.044;13.788;2023-02-12T08:51:17;34.15;;;19.75;;
74245;SDS011;62601;51.044;13.788;2023-02-12T08:53:39;32.50;;;19.92;;
74245;SDS011;62601;51.044;13.788;2023-02-12T08:56:01;39.80;;;21.20;;
74245;SDS011;62601;51.044;13.788;2023-02-12T08:58:21;38.38;;;21.40;;
74245;SDS011;62601;51.044;13.788;2023-02-12T09:00:41;34.38;;;19.65;;
74245;SDS011;62601;51.044;13.788;2023-02-12T09:03:02;34.35;;;20.35;;
74245;SDS011;62601;51.044;13.788;2023-02-12T09:05:23;37.13;;;21.15;;
74245;SDS011;62601;51.044;13.788;2023-02-12T09:07:44;38.10;;;20.95;;
74245;SDS011;62601;51.044;13.788;2023-02-12T09:10:06;32.80;;;20.20;;
74245;SDS011;62601;51.044;13.788;2023-02-12T09:12:28;33.10;;;19.05;;
74245;SDS011;62601;51.044;13.788;2023-02-12T09:14:49;37.15;;;19.23;;
74245;SDS011;62601;51.044;13.788;2023-02-12T09:17:10;35.15;;;20.33;;
74245;SDS011;62601;51.044;13.788;2023-02-12T09:19:32;34.25;;;19.27;;
74245;SDS011;62601;51.044;13.788;2023-02-12T09:21:52;31.35;;;19.20;;
74245;SDS011;62601;51.044;13.788;2023-02-12T09:24:14;31.25;;;18.40;;
74245;SDS011;62601;51.044;13.788;2023-02-12T09:26:35;32.83;;;19.00;;
74245;SDS011;62601;51.044;13.788;2023-02-12T09:28:57;28.10;;;17.92;;
74245;SDS011;62601;51.044;13.788;2023-02-12T09:31:22;33.10;;;18.60;;
74245;SDS011;62601;51.044;13.788;2023-02-12T09:33:44;34.17;;;19.27;;
74245;SDS011;62601;51.044;13.788;2023-02-12T09:36:11;35.03;;;18.30;;
74245;SDS011;62601;51.044;13.788;2023-02-12T09:38:32;29.48;;;17.60;;
74245;SDS011;62601;51.044;13.788;2023-02-12T09:43:43;30.27;;;17.90;;
74245;SDS011;62601;51.044;13.788;2023-02-12T09:46:14;30.80;;;17.05;;
74245;SDS011;62601;51.044;13.788;2023-02-12T09:48:48;27.40;;;16.55;;
74245;SDS011;62601;51.044;13.788;2023-02-12T09:51:14;27.13;;;17.33;;
74245;SDS011;62601;51.044;13.788;2023-02-12T09:53:42;30.38;;;17.75;;
74245;SDS011;62601;51.044;13.788;2023-02-12T09:56:15;30.17;;;17.38;;
74245;SDS011;62601;51.044;13.788;2023-02-12T09:58:39;28.25;;;15.15;;
74245;SDS011;62601;51.044;13.788;2023-02-12T10:01:13;28.20;;;15.15;;
74245;SDS011;62601;51.044;13.788;2023-02-12T10:03:35;25.73;;;16.17;;
74245;SDS011;62601;51.044;13.788;2023-02-12T10:05:58;26.70;;;15.73;;
74245;SDS011;62601;51.044;13.788;2023-02-12T10:16:13;20.73;;;13.15;;
74245;SDS011;62601;51.044;13.788;2023-02-12T10:21:10;22.77;;;13.55;;
74245;SDS011;62601;51.044;13.788;2023-02-12T10:26:23;20.70;;;12.98;;
74245;SDS011;62601;51.044;13.788;2023-02-12T10:28:44;22.25;;;11.98;;
74245;SDS011;62601;51.044;13.788;2023-02-12T10:33:46;16.75;;;10.23;;
74245;SDS011;62601;51.044;13.788;2023-02-12T10:36:17;19.02;;;11.80;;
74245;SDS011;62601;51.044;13.788;2023-02-12T10:38:41;19.17;;;11.20;;
74245;SDS011;62601;51.044;13.788;2023-02-12T10:41:06;18.67;;;11.55;;
74245;SDS011;62601;51.044;13.788;2023-02-12T10:43:28;23.02;;;11.38;;
74245;SDS011;62601;51.044;13.788;2023-02-12T10:45:50;20.70;;;10.95;;
74245;SDS011;62601;51.044;13.788;2023-02-12T10:50:45;19.70;;;11.27;;
74245;SDS011;62601;51.044;13.788;2023-02-12T10:53:17;17.75;;;10.25;;
74245;SDS011;62601;51.044;13.788;2023-02-12T10:55:40;22.73;;;11.70;;
74245;SDS011;62601;51.044;13.788;2023-02-12T10:58:02;18.00;;;10.77;;
74245;SDS011;62601;51.044;13.788;2023-02-12T11:00:36;20.23;;;10.23;;
74245;SDS011;62601;51.044;13.788;2023-02-12T11:03:01;19.05;;;10.20;;
74245;SDS011;62601;51.044;13.788;2023-02-12T11:05:33;20.58;;;11.07;;
74245;SDS011;62601;51.044;13.788;2023-02-12T11:08:04;18.60;;;11.55;;
74245;SDS011;62601;51.044;13.788;2023-02-12T11:10:36;16.10;;;8.32;;
74245;SDS011;62601;51.044;13.788;2023-02-12T11:13:01;16.15;;;8.35;;
74245;SDS011;62601;51.044;13.788;2023-02-12T11:15:22;18.95;;;9.82;;
74245;SDS011;62601;51.044;13.788;2023-02-12T11:18:02;21.25;;;9.90;;
74245;SDS011;62601;51.044;13.788;2023-02-12T11:20:37;15.68;;;9.25;;
74245;SDS011;62601;51.044;13.788;2023-02-12T11:23:01;18.98;;;9.20;;
74245;SDS011;62601;51.044;13.788;2023-02-12T11:25:23;14.50;;;7.30;;
74245;SDS011;62601;51.044;13.788;2023-02-12T11:27:56;15.10;;;6.97;;
74245;SDS011;62601;51.044;13.788;2023-02-12T11:30:19;15.02;;;6.55;;
74245;SDS011;62601;51.044;13.788;2023-02-12T11:32:43;15.00;;;7.40;;
74245;SDS011;62601;51.044;13.788;2023-02-12T11:35:16;16.23;;;7.75;;
74245;SDS011;62601;51.044;13.788;2023-02-12T11:37:41;16.92;;;7.75;;
74245;SDS011;62601;51.044;13.788;2023-02-12T11:40:06;13.73;;;6.90;;
74245;SDS011;62601;51.044;13.788;2023-02-12T11:42:34;31.45;;;16.65;;
74245;SDS011;62601;51.044;13.788;2023-02-12T11:44:57;21.10;;;11.25;;
74245;SDS011;62601;51.044;13.788;2023-02-12T11:47:24;21.35;;;10.85;;
74245;SDS011;62601;51.044;13.788;2023-02-12T11:49:51;13.10;;;7.10;;
74245;SDS011;62601;51.044;13.788;2023-02-12T11:52:19;11.82;;;7.72;;
74245;SDS011;62601;51.044;13.788;2023-02-12T11:54:41;19.60;;;8.25;;
74245;SDS011;62601;51.044;13.788;2023-02-12T11:57:06;15.23;;;7.22;;
74245;SDS011;62601;51.044;13.788;2023-02-12T11:59:32;19.63;;;7.45;;
74245;SDS011;62601;51.044;13.788;2023-02-12T12:01:53;11.85;;;6.50;;
74245;SDS011;62601;51.044;13.788;2023-02-12T12:04:16;16.98;;;6.88;;
74245;SDS011;62601;51.044;13.788;2023-02-12T12:06:52;16.65;;;6.38;;
74245;SDS011;62601;51.044;13.788;2023-02-12T12:09:24;16.50;;;8.10;;
74245;SDS011;62601;51.044;13.788;2023-02-12T12:14:45;16.23;;;7.40;;
74245;SDS011;62601;51.044;13.788;2023-02-12T12:17:10;12.20;;;6.72;;
74245;SDS011;62601;51.044;13.788;2023-02-12T12:24:59;18.23;;;8.23;;
74245;SDS011;62601;51.044;13.788;2023-02-12T12:28:16;17.17;;;6.72;;
74245;SDS011;62601;51.044;13.788;2023-02-12T12:30:11;15.85;;;7.78;;
74245;SDS011;62601;51.044;13.788;2023-02-12T12:32:36;18.08;;;6.65;;
74245;SDS011;62601;51.044;13.788;2023-02-12T12:35:00;13.00;;;6.57;;
74245;SDS011;62601;51.044;13.788;2023-02-12T12:42:58;11.27;;;6.13;;
74245;SDS011;62601;51.044;13.788;2023-02-12T13:01:29;13.35;;;6.95;;
74245;SDS011;62601;51.044;13.788;2023-02-12T13:09:18;17.17;;;6.63;;
74245;SDS011;62601;51.044;13.788;2023-02-12T13:22:43;12.35;;;5.90;;
74245;SDS011;62601;51.044;13.788;2023-02-12T13:25:31;14.63;;;6.45;;
74245;SDS011;62601;51.044;13.788;2023-02-12T13:27:56;15.90;;;8.27;;
74245;SDS011;62601;51.044;13.788;2023-02-12T13:30:36;15.95;;;7.15;;
74245;SDS011;62601;51.044;13.788;2023-02-12T13:35:40;15.93;;;7.53;;
74245;SDS011;62601;51.044;13.788;2023-02-12T13:38:02;15.93;;;6.85;;
74245;SDS011;62601;51.044;13.788;2023-02-12T13:40:25;14.10;;;6.90;;
74245;SDS011;62601;51.044;13.788;2023-02-12T13:42:53;21.55;;;8.07;;
74245;SDS011;62601;51.044;13.788;2023-02-12T13:53:51;19.02;;;7.43;;
74245;SDS011;62601;51.044;13.788;2023-02-12T13:58:45;16.83;;;7.55;;
74245;SDS011;62601;51.044;13.788;2023-02-12T14:01:09;21.30;;;7.60;;
74245;SDS011;62601;51.044;13.788;2023-02-12T14:03:35;14.07;;;7.30;;
74245;SDS011;62601;51.044;13.788;2023-02-12T14:08:37;18.92;;;6.07;;
74245;SDS011;62601;51.044;13.788;2023-02-12T14:11:08;12.63;;;6.38;;
74245;SDS011;62601;51.044;13.788;2023-02-12T14:13:31;13.32;;;6.22;;
74245;SDS011;62601;51.044;13.788;2023-02-12T14:15:55;11.75;;;7.07;;
74245;SDS011;62601;51.044;13.788;2023-02-12T14:20:47;16.95;;;5.28;;
74245;SDS011;62601;51.044;13.788;2023-02-12T14:23:26;12.02;;;5.20;;
74245;SDS011;62601;51.044;13.788;2023-02-12T14:26:33;14.60;;;5.90;;
74245;SDS011;62601;51.044;13.788;2023-02-12T14:28:33;15.43;;;7.38;;
74245;SDS011;62601;51.044;13.788;2023-02-12T14:33:39;8.32;;;6.00;;
74245;SDS011;62601;51.044;13.788;2023-02-12T14:43:37;10.27;;;6.20;;
74245;SDS011;62601;51.044;13.788;2023-02-12T14:54:12;8.80;;;5.65;;
74245;SDS011;62601;51.044;13.788;2023-02-12T14:56:35;11.05;;;6.55;;
74245;SDS011;62601;51.044;13.788;2023-02-12T14:59:10;9.40;;;7.00;;
74245;SDS011;62601;51.044;13.788;2023-02-12T15:01:35;11.18;;;6.32;;
74245;SDS011;62601;51.044;13.788;2023-02-12T15:03:55;10.45;;;6.00;;
74245;SDS011;62601;51.044;13.788;2023-02-12T15:06:26;10.27;;;6.30;;
74245;SDS011;62601;51.044;13.788;2023-02-12T15:09:06;11.35;;;6.88;;
74245;SDS011;62601;51.044;13.788;2023-02-12T15:11:32;19.17;;;9.05;;
74245;SDS011;62601;51.044;13.788;2023-02-12T15:14:04;10.90;;;6.93;;
74245;SDS011;62601;51.044;13.788;2023-02-12T15:16:37;11.68;;;6.88;;
74245;SDS011;62601;51.044;13.788;2023-02-12T15:19:12;17.02;;;10.13;;
74245;SDS011;62601;51.044;13.788;2023-02-12T15:21:37;12.73;;;7.22;;
74245;SDS011;62601;51.044;13.788;2023-02-12T15:24:04;10.80;;;7.00;;
74245;SDS011;62601;51.044;13.788;2023-02-12T15:26:26;11.98;;;7.50;;
74245;SDS011;62601;51.044;13.788;2023-02-12T15:28:49;12.02;;;7.65;;
74245;SDS011;62601;51.044;13.788;2023-02-12T15:31:14;13.57;;;7.40;;
74245;SDS011;62601;51.044;13.788;2023-02-12T15:33:38;12.45;;;8.60;;
74245;SDS011;62601;51.044;13.788;2023-02-12T15:36:00;10.98;;;7.50;;
74245;SDS011;62601;51.044;13.788;2023-02-12T15:38:26;12.70;;;7.90;;
74245;SDS011;62601;51.044;13.788;2023-02-12T15:40:54;14.18;;;8.50;;
74245;SDS011;62601;51.044;13.788;2023-02-12T15:43:16;14.85;;;8.90;;
74245;SDS011;62601;51.044;13.788;2023-02-12T15:45:36;15.93;;;10.05;;
74245;SDS011;62601;51.044;13.788;2023-02-12T15:48:02;14.30;;;9.57;;
74245;SDS011;62601;51.044;13.788;2023-02-12T15:50:25;14.77;;;8.70;;
74245;SDS011;62601;51.044;13.788;2023-02-12T15:52:47;15.05;;;8.10;;
74245;SDS011;62601;51.044;13.788;2023-02-12T15:55:16;11.40;;;8.05;;
74245;SDS011;62601;51.044;13.788;2023-02-12T15:57:42;16.38;;;8.38;;
74245;SDS011;62601;51.044;13.788;2023-02-12T16:00:10;16.75;;;9.32;;
74245;SDS011;62601;51.044;13.788;2023-02-12T16:02:50;12.73;;;8.50;;
74245;SDS011;62601;51.044;13.788;2023-02-12T16:05:13;15.70;;;8.40;;
74245;SDS011;62601;51.044;13.788;2023-02-12T16:07:35;13.65;;;8.32;;
74245;SDS011;62601;51.044;13.788;2023-02-12T16:09:57;12.10;;;8.10;;